createdAt,value
2019-03-12T00:01:27.879Z,2.20
2019-03-12T00:03:59.017Z,2.63
2019-03-12T00:06:30.278Z,2.50
2019-03-12T00:09:01.380Z,3.33
2019-03-12T00:11:34.093Z,3.08
2019-03-12T00:14:06.219Z,2.60
2019-03-12T00:16:37.314Z,2.58
2019-03-12T00:19:08.433Z,2.33
2019-03-12T00:21:39.516Z,2.50
2019-03-12T00:24:10.590Z,2.90
2019-03-12T00:26:41.633Z,2.40
2019-03-12T00:29:12.735Z,2.40
2019-03-12T00:31:43.811Z,2.67
2019-03-12T00:34:15.110Z,2.60
2019-03-12T00:36:46.442Z,2.60
2019-03-12T00:39:17.559Z,2.30
2019-03-12T00:41:48.651Z,2.50
2019-03-12T00:44:19.803Z,2.80
2019-03-12T00:46:50.948Z,2.60
2019-03-12T00:49:22.092Z,2.50
2019-03-12T00:51:53.239Z,2.80
2019-03-12T00:54:24.504Z,2.53
2019-03-12T00:56:55.611Z,2.20
2019-03-12T00:59:26.775Z,2.53
2019-03-12T01:01:57.856Z,2.00
2019-03-12T01:04:28.972Z,2.13
2019-03-12T01:07:00.369Z,2.30
2019-03-12T01:09:31.463Z,2.70
2019-03-12T01:12:02.604Z,2.47
2019-03-12T01:14:33.833Z,2.33
2019-03-12T01:17:04.949Z,2.80
2019-03-12T01:19:36.082Z,2.67
2019-03-12T01:22:07.265Z,2.67
2019-03-12T01:24:38.473Z,2.43
2019-03-12T01:27:09.709Z,2.60
2019-03-12T01:29:40.881Z,2.63
2019-03-12T01:32:11.981Z,2.50
2019-03-12T01:34:43.075Z,2.30
2019-03-12T01:37:14.410Z,2.63
2019-03-12T01:39:45.556Z,2.90
2019-03-12T01:42:16.681Z,2.27
2019-03-12T01:44:47.739Z,2.47
2019-03-12T01:47:18.860Z,2.80
2019-03-12T01:49:49.989Z,2.80
2019-03-12T01:52:21.220Z,2.40
2019-03-12T01:54:52.298Z,2.47
2019-03-12T01:57:24.636Z,2.80
2019-03-12T01:59:55.896Z,3.10
2019-03-12T02:02:27.053Z,2.60
2019-03-12T02:04:58.179Z,2.80
2019-03-12T02:07:39.042Z,2.50
2019-03-12T02:10:10.393Z,2.53
2019-03-12T02:12:41.554Z,2.50
2019-03-12T02:15:12.916Z,3.10
2019-03-12T02:17:44.052Z,2.80
2019-03-12T02:20:16.207Z,2.73
2019-03-12T02:22:47.425Z,2.87
2019-03-12T02:25:18.549Z,2.17
2019-03-12T02:27:49.743Z,3.17
2019-03-12T02:30:21.327Z,2.90
2019-03-12T02:32:52.530Z,2.83
2019-03-12T02:35:23.577Z,2.47
2019-03-12T02:37:55.123Z,2.57
2019-03-12T02:40:26.278Z,2.83
2019-03-12T02:42:57.378Z,2.30
2019-03-12T02:45:28.446Z,2.70
2019-03-12T02:47:59.540Z,2.40
2019-03-12T02:50:30.616Z,2.97
2019-03-12T02:53:01.776Z,3.00
2019-03-12T02:55:32.839Z,2.50
2019-03-12T02:58:03.901Z,3.27
2019-03-12T03:00:35.043Z,2.73
2019-03-12T03:03:06.167Z,3.10
2019-03-12T03:05:47.057Z,2.80
2019-03-12T03:08:19.700Z,3.23
2019-03-12T03:10:50.783Z,3.17
2019-03-12T03:13:21.877Z,3.30
2019-03-12T03:15:52.911Z,3.23
2019-03-12T03:18:24.056Z,3.02
2019-03-12T03:20:55.143Z,2.87
2019-03-12T03:23:26.282Z,2.93
2019-03-12T03:25:57.431Z,2.67
2019-03-12T03:28:28.528Z,2.73
2019-03-12T03:30:59.662Z,3.17
2019-03-12T03:33:30.814Z,3.58
2019-03-12T03:36:02.002Z,3.33
2019-03-12T03:38:33.465Z,2.97
2019-03-12T03:41:04.572Z,3.62
2019-03-12T03:43:35.658Z,3.10
2019-03-12T03:46:06.802Z,3.70
2019-03-12T03:48:38.979Z,3.70
2019-03-12T03:51:10.202Z,3.07
2019-03-12T03:53:41.274Z,3.37
2019-03-12T03:56:12.335Z,3.45
2019-03-12T03:58:43.460Z,3.20
2019-03-12T04:01:14.577Z,3.30
2019-03-12T04:03:45.789Z,3.20
2019-03-12T04:06:16.852Z,3.30
2019-03-12T04:08:48.045Z,3.17
2019-03-12T04:11:19.160Z,2.90
2019-03-12T04:13:50.318Z,3.03
2019-03-12T04:16:21.502Z,3.27
2019-03-12T04:18:52.680Z,3.90
2019-03-12T04:21:23.803Z,3.40
2019-03-12T04:23:54.920Z,3.33
2019-03-12T04:26:27.148Z,3.20
2019-03-12T04:28:58.289Z,3.13
2019-03-12T04:31:29.691Z,3.00
2019-03-12T04:34:24.100Z,2.70
2019-03-12T04:36:55.294Z,2.67
2019-03-12T04:39:26.751Z,2.47
2019-03-12T04:41:57.827Z,3.43
2019-03-12T04:44:28.937Z,2.70
2019-03-12T04:47:00.059Z,3.00
2019-03-12T04:49:31.150Z,3.10
2019-03-12T04:52:02.227Z,3.47
2019-03-12T04:54:33.395Z,3.00
2019-03-12T04:57:04.532Z,3.17
2019-03-12T04:59:35.641Z,2.77
2019-03-12T05:02:07.011Z,2.90
2019-03-12T05:04:38.113Z,2.70
2019-03-12T05:07:09.296Z,2.70
2019-03-12T05:09:40.347Z,3.40
2019-03-12T05:12:11.447Z,2.90
2019-03-12T05:14:44.765Z,3.63
2019-03-12T05:17:23.706Z,3.30
2019-03-12T05:19:54.832Z,3.80
2019-03-12T05:22:26.209Z,3.50
2019-03-12T05:24:57.277Z,3.53
2019-03-12T05:27:28.522Z,3.67
2019-03-12T05:29:59.633Z,3.30
2019-03-12T05:32:30.709Z,3.73
2019-03-12T05:35:01.843Z,3.47
2019-03-12T05:37:33.051Z,3.97
2019-03-12T05:40:04.649Z,3.77
2019-03-12T05:42:35.748Z,3.60
2019-03-12T05:45:07.192Z,4.00
2019-03-12T05:47:38.209Z,4.17
2019-03-12T05:50:20.815Z,3.93
2019-03-12T05:52:51.855Z,4.07
2019-03-12T05:55:23.040Z,4.20
2019-03-12T05:57:54.082Z,4.30
2019-03-12T06:00:27.159Z,4.07
2019-03-12T06:02:58.261Z,4.00
2019-03-12T06:05:29.632Z,3.70
2019-03-12T06:08:00.698Z,4.17
2019-03-12T06:10:31.773Z,4.10
2019-03-12T06:13:02.824Z,4.33
2019-03-12T06:15:33.923Z,6.10
2019-03-12T06:18:04.983Z,4.43
2019-03-12T06:20:36.657Z,4.83
2019-03-12T06:23:07.753Z,4.10
2019-03-12T06:25:38.827Z,3.73
2019-03-12T06:28:10.039Z,4.30
2019-03-12T06:30:53.477Z,4.40
2019-03-12T06:33:27.901Z,3.90
2019-03-12T06:36:10.039Z,4.60
2019-03-12T06:39:00.017Z,4.50
2019-03-12T06:41:50.607Z,5.27
2019-03-12T06:44:40.602Z,5.03
2019-03-12T06:47:26.869Z,5.67
2019-03-12T06:50:16.933Z,4.70
2019-03-12T06:53:22.345Z,5.70
2019-03-12T06:56:02.871Z,5.13
2019-03-12T06:58:59.823Z,4.80
2019-03-12T07:01:56.063Z,4.90
2019-03-12T07:04:46.051Z,5.60
2019-03-12T07:07:34.901Z,5.67
2019-03-12T07:10:14.013Z,5.30
2019-03-12T07:13:15.247Z,5.00
2019-03-12T07:15:55.035Z,5.87
2019-03-12T07:18:33.404Z,5.70
2019-03-12T07:21:22.259Z,6.17
2019-03-12T07:24:08.087Z,5.87
2019-03-12T07:26:51.671Z,5.90
2019-03-12T07:29:33.721Z,5.60
2019-03-12T07:32:36.757Z,5.03
2019-03-12T07:35:27.499Z,5.70
2019-03-12T07:38:23.457Z,5.67
2019-03-12T07:41:25.064Z,5.80
2019-03-12T07:43:57.693Z,5.93
2019-03-12T07:46:45.657Z,5.60
2019-03-12T07:49:34.451Z,5.20
2019-03-12T07:52:25.597Z,5.37
2019-03-12T07:55:13.643Z,5.80
2019-03-12T07:57:53.734Z,5.30
2019-03-12T08:00:31.119Z,5.00
2019-03-12T08:03:33.287Z,5.17
2019-03-12T08:06:11.087Z,4.73
2019-03-12T08:09:00.141Z,4.77
2019-03-12T08:11:35.891Z,5.60
2019-03-12T08:14:28.977Z,4.73
2019-03-12T08:17:19.639Z,4.70
2019-03-12T08:20:00.948Z,5.37
2019-03-12T08:22:57.063Z,5.30
2019-03-12T08:25:46.517Z,4.87
2019-03-12T08:28:36.519Z,4.57
2019-03-12T08:31:21.373Z,5.00
2019-03-12T08:34:06.123Z,5.87
2019-03-12T08:36:52.331Z,4.97
2019-03-12T08:39:30.056Z,5.60
2019-03-12T08:42:20.068Z,5.00
2019-03-12T08:45:17.515Z,4.70
2019-03-12T08:48:12.803Z,4.90
2019-03-12T08:51:08.332Z,4.23
2019-03-12T08:54:04.196Z,4.03
2019-03-12T08:56:53.029Z,4.50
2019-03-12T08:59:41.839Z,4.13
2019-03-12T09:02:35.091Z,4.77
2019-03-12T09:05:24.495Z,3.93
2019-03-12T09:08:13.156Z,4.37
2019-03-12T09:11:08.976Z,3.80
2019-03-12T09:13:55.619Z,3.60
2019-03-12T09:16:44.529Z,4.10
2019-03-12T09:19:31.640Z,4.27
2019-03-12T09:22:08.612Z,4.00
2019-03-12T09:24:54.963Z,3.67
2019-03-12T09:27:51.060Z,3.70
2019-03-12T09:30:30.063Z,3.30
2019-03-12T09:33:13.566Z,3.17
2019-03-12T09:36:01.259Z,3.30
2019-03-12T09:39:03.633Z,3.37
2019-03-12T09:41:55.111Z,3.27
2019-03-12T09:45:00.370Z,3.70
2019-03-12T09:47:41.913Z,2.93
2019-03-12T09:50:35.015Z,2.57
2019-03-12T09:53:10.106Z,2.60
2019-03-12T09:55:58.851Z,2.97
2019-03-12T09:59:01.228Z,3.07
2019-03-12T10:01:59.466Z,3.33
2019-03-12T10:05:01.378Z,3.07
2019-03-12T10:07:43.759Z,2.67
2019-03-12T10:10:34.530Z,2.70
2019-03-12T10:13:39.582Z,3.00
2019-03-12T10:16:23.609Z,3.00
2019-03-12T10:19:12.472Z,2.57
2019-03-12T10:21:52.851Z,2.40
2019-03-12T10:24:52.167Z,3.53
2019-03-12T10:27:35.549Z,2.40
2019-03-12T10:30:24.189Z,2.80
2019-03-12T10:33:31.641Z,2.80
2019-03-12T10:36:18.626Z,2.80
2019-03-12T10:39:38.846Z,2.50
2019-03-12T10:42:24.327Z,3.23
2019-03-12T10:45:03.660Z,3.13
2019-03-12T10:47:36.103Z,2.83
2019-03-12T10:50:07.545Z,2.50
2019-03-12T10:52:38.721Z,2.80
2019-03-12T10:55:13.570Z,2.90
2019-03-12T10:57:42.757Z,2.43
2019-03-12T11:00:14.228Z,2.40
2019-03-12T11:02:45.348Z,3.03
2019-03-12T11:05:17.395Z,2.63
2019-03-12T11:07:48.553Z,2.57
2019-03-12T11:10:20.093Z,2.47
2019-03-12T11:12:51.442Z,2.97
2019-03-12T11:15:22.845Z,2.63
2019-03-12T11:17:54.086Z,2.63
2019-03-12T11:20:25.214Z,2.33
2019-03-12T11:22:56.363Z,2.37
2019-03-12T11:25:28.575Z,2.73
2019-03-12T11:27:59.831Z,3.00
2019-03-12T11:30:30.900Z,2.50
2019-03-12T11:33:02.129Z,2.63
2019-03-12T11:35:39.152Z,2.80
2019-03-12T11:38:06.120Z,2.43
2019-03-12T11:40:37.211Z,2.40
2019-03-12T11:43:09.494Z,2.53
2019-03-12T11:45:40.824Z,2.63
2019-03-12T11:48:12.105Z,2.70
2019-03-12T11:50:43.221Z,2.80
2019-03-12T11:53:14.466Z,2.20
2019-03-12T11:55:45.672Z,2.57
2019-03-12T11:58:16.880Z,2.70
2019-03-12T12:00:56.715Z,2.50
2019-03-12T12:03:28.851Z,2.63
2019-03-12T12:05:59.982Z,2.90
2019-03-12T12:08:31.081Z,2.90
2019-03-12T12:11:02.347Z,2.73
2019-03-12T12:13:33.559Z,2.37
2019-03-12T12:16:04.744Z,2.53
2019-03-12T12:18:35.928Z,2.60
2019-03-12T12:21:07.885Z,2.60
2019-03-12T12:23:39.078Z,2.70
2019-03-12T12:26:10.381Z,2.10
2019-03-12T12:28:41.519Z,2.50
2019-03-12T12:31:12.607Z,2.57
2019-03-12T12:33:55.080Z,2.10
2019-03-12T12:36:26.389Z,2.47
2019-03-12T12:38:57.633Z,2.50
2019-03-12T12:41:28.775Z,3.03
2019-03-12T12:43:59.879Z,3.10
2019-03-12T12:46:31.119Z,2.73
2019-03-12T12:49:03.315Z,2.60
2019-03-12T12:51:34.452Z,2.20
2019-03-12T12:54:05.663Z,2.70
2019-03-12T12:56:36.911Z,2.30
2019-03-12T12:59:07.975Z,3.60
2019-03-12T13:01:39.347Z,2.70
2019-03-12T13:04:10.403Z,2.20
2019-03-12T13:06:41.627Z,2.83
2019-03-12T13:09:12.733Z,2.50
2019-03-12T13:11:44.771Z,2.47
2019-03-12T13:14:27.458Z,2.40
2019-03-12T13:16:58.945Z,2.23
2019-03-12T13:19:30.034Z,2.53
2019-03-12T13:22:01.189Z,2.10
2019-03-12T13:24:32.312Z,2.57
2019-03-12T13:27:15.233Z,2.17
2019-03-12T13:29:46.343Z,2.23
2019-03-12T13:32:17.576Z,2.60
2019-03-12T13:34:48.689Z,2.40
2019-03-12T13:37:19.917Z,1.97
2019-03-12T13:39:51.122Z,2.20
2019-03-12T13:42:22.333Z,2.13
2019-03-12T13:44:53.497Z,2.30
2019-03-12T13:47:28.748Z,2.23
2019-03-12T13:49:57.701Z,2.40
2019-03-12T13:52:28.892Z,2.10
2019-03-12T13:55:00.080Z,2.13
2019-03-12T13:57:32.109Z,2.40
2019-03-12T14:00:03.285Z,1.80
2019-03-12T14:02:36.584Z,1.97
2019-03-12T14:05:08.371Z,2.00
2019-03-12T14:07:39.540Z,2.00
2019-03-12T14:10:13.272Z,2.53
2019-03-12T14:12:44.587Z,1.90
2019-03-12T14:15:28.826Z,2.07
2019-03-12T14:18:00.073Z,2.37
2019-03-12T14:20:51.481Z,2.30
2019-03-12T14:23:28.293Z,2.60
2019-03-12T14:25:59.480Z,2.23
2019-03-12T14:28:30.596Z,2.20
2019-03-12T14:31:02.020Z,2.60
2019-03-12T14:33:33.177Z,2.00
2019-03-12T14:36:04.464Z,2.30
2019-03-12T14:38:35.686Z,2.60
2019-03-12T14:41:07.219Z,2.40
2019-03-12T14:43:38.440Z,2.37
2019-03-12T14:46:09.511Z,2.60
2019-03-12T14:48:43.598Z,2.80
2019-03-12T14:51:51.956Z,2.53
2019-03-12T14:54:23.139Z,2.40
2019-03-12T14:56:54.220Z,2.30
2019-03-12T14:59:25.358Z,2.80
2019-03-12T15:01:56.539Z,2.53
2019-03-12T15:04:27.939Z,2.33
2019-03-12T15:06:59.053Z,2.90
2019-03-12T15:09:30.119Z,2.90
2019-03-12T15:12:01.251Z,2.70
2019-03-12T15:14:32.376Z,2.53
2019-03-12T15:17:03.563Z,2.63
2019-03-12T15:19:34.721Z,3.20
2019-03-12T15:22:05.963Z,3.00
2019-03-12T15:24:38.274Z,2.77
2019-03-12T15:27:09.408Z,2.77
2019-03-12T15:29:40.873Z,2.57
2019-03-12T15:32:12.247Z,2.70
2019-03-12T15:34:43.410Z,2.60
2019-03-12T15:37:14.667Z,2.90
2019-03-12T15:39:45.802Z,3.00
2019-03-12T15:42:16.920Z,3.13
2019-03-12T15:44:48.140Z,3.40
2019-03-12T15:47:19.335Z,3.13
2019-03-12T15:49:51.557Z,3.67
2019-03-12T15:52:22.705Z,2.60
2019-03-12T15:54:53.739Z,2.60
2019-03-12T15:57:24.988Z,2.90
2019-03-12T15:59:56.083Z,3.40
2019-03-12T16:02:27.265Z,3.03
2019-03-12T16:04:58.477Z,3.30
2019-03-12T16:07:29.661Z,2.67
2019-03-12T16:10:01.727Z,3.30
2019-03-12T16:12:33.772Z,3.40
2019-03-12T16:15:05.073Z,3.90
2019-03-12T16:17:36.388Z,4.00
2019-03-12T16:20:09.037Z,3.47
2019-03-12T16:22:40.138Z,3.13
2019-03-12T16:25:11.355Z,2.83
2019-03-12T16:27:42.483Z,2.90
2019-03-12T16:30:13.963Z,2.80
2019-03-12T16:32:45.181Z,2.90
2019-03-12T16:35:16.535Z,3.27
2019-03-12T16:37:47.858Z,3.40
2019-03-12T16:40:19.132Z,2.97
2019-03-12T16:42:57.281Z,3.57
2019-03-12T16:45:28.461Z,3.43
2019-03-12T16:48:00.987Z,3.60
2019-03-12T16:50:32.320Z,3.10
2019-03-12T16:53:03.420Z,3.67
2019-03-12T16:55:34.637Z,3.27
2019-03-12T16:58:05.803Z,2.90
2019-03-12T17:00:36.947Z,2.53
2019-03-12T17:03:08.150Z,2.80
2019-03-12T17:05:39.393Z,3.30
2019-03-12T17:08:10.537Z,3.20
2019-03-12T17:10:53.951Z,3.33
2019-03-12T17:13:14.726Z,3.03
2019-03-12T17:15:45.941Z,3.07
2019-03-12T17:18:17.055Z,3.23
2019-03-12T17:20:48.307Z,3.40
2019-03-12T17:23:19.579Z,3.20
2019-03-12T17:25:50.924Z,3.80
2019-03-12T17:28:22.103Z,3.60
2019-03-12T17:30:53.200Z,3.17
2019-03-12T17:33:24.493Z,3.37
2019-03-12T17:35:56.311Z,3.43
2019-03-12T17:38:27.530Z,3.73
2019-03-12T17:40:58.775Z,3.20
2019-03-12T17:43:30.124Z,3.63
2019-03-12T17:46:01.304Z,3.63
2019-03-12T17:48:32.533Z,3.67
2019-03-12T17:51:05.193Z,3.33
2019-03-12T17:53:36.289Z,3.83
2019-03-12T17:56:07.763Z,3.30
2019-03-12T17:58:39.059Z,3.40
2019-03-12T18:01:10.208Z,4.00
2019-03-12T18:03:41.420Z,3.50
2019-03-12T18:06:12.828Z,3.70
2019-03-12T18:08:44.213Z,4.23
2019-03-12T18:11:15.536Z,3.70
2019-03-12T18:13:46.934Z,4.33
2019-03-12T18:16:18.229Z,3.33
2019-03-12T18:18:49.591Z,3.57
2019-03-12T18:21:20.899Z,3.63
2019-03-12T18:23:54.277Z,3.33
2019-03-12T18:26:25.667Z,3.53
2019-03-12T18:28:59.264Z,4.00
2019-03-12T18:31:29.988Z,3.50
2019-03-12T18:34:01.217Z,4.67
2019-03-12T18:36:32.890Z,4.13
2019-03-12T18:39:06.069Z,3.90
2019-03-12T18:41:39.244Z,4.10
2019-03-12T18:44:14.372Z,3.90
2019-03-12T18:46:45.650Z,4.40
2019-03-12T18:49:17.084Z,3.10
2019-03-12T18:51:48.335Z,3.53
2019-03-12T18:54:19.551Z,3.90
2019-03-12T18:56:50.704Z,3.93
2019-03-12T18:59:22.058Z,4.00
2019-03-12T19:01:53.944Z,3.97
2019-03-12T19:04:25.147Z,3.37
2019-03-12T19:06:56.793Z,5.20
2019-03-12T19:09:28.118Z,3.80
2019-03-12T19:11:59.327Z,4.57
2019-03-12T19:14:30.601Z,4.20
2019-03-12T19:17:01.857Z,4.07
2019-03-12T19:19:33.129Z,4.90
2019-03-12T19:22:04.445Z,4.00
2019-03-12T19:24:35.649Z,4.17
2019-03-12T19:27:07.345Z,4.27
2019-03-12T19:29:39.609Z,3.90
2019-03-12T19:32:38.737Z,4.07
2019-03-12T19:35:13.053Z,4.93
2019-03-12T19:37:44.323Z,4.73
2019-03-12T19:40:17.375Z,3.37
2019-03-12T19:42:53.083Z,3.60
2019-03-12T19:45:24.431Z,3.77
2019-03-12T19:47:55.685Z,3.97
2019-03-12T19:50:27.708Z,4.07
2019-03-12T19:53:00.277Z,3.40
2019-03-12T19:55:37.533Z,3.93
2019-03-12T19:58:08.841Z,4.30
2019-03-12T20:00:41.217Z,4.30
2019-03-12T20:03:15.344Z,4.17
2019-03-12T20:05:46.784Z,3.93
2019-03-12T20:08:18.387Z,4.80
2019-03-12T20:11:28.339Z,4.30
2019-03-12T20:14:49.403Z,4.60
2019-03-12T20:18:07.863Z,4.43
2019-03-12T20:21:18.938Z,4.23
2019-03-12T20:24:26.123Z,3.80
2019-03-12T20:27:35.188Z,3.83
2019-03-12T20:30:59.066Z,3.90
2019-03-12T20:34:26.707Z,4.43
2019-03-12T20:37:34.831Z,3.90
2019-03-12T20:40:41.542Z,3.90
2019-03-12T20:44:00.353Z,3.73
2019-03-12T20:47:09.708Z,4.47
2019-03-12T20:50:25.946Z,3.93
2019-03-12T20:53:40.127Z,3.80
2019-03-12T20:56:51.690Z,4.33
2019-03-12T21:00:16.555Z,3.80
2019-03-12T21:03:57.526Z,4.03
2019-03-12T21:07:24.559Z,3.60
2019-03-12T21:10:49.360Z,3.50
2019-03-12T21:13:58.076Z,3.40
2019-03-12T21:17:03.186Z,3.93
2019-03-12T21:20:21.315Z,3.63
2019-03-12T21:23:06.663Z,3.70
2019-03-12T21:26:05.297Z,3.90
2019-03-12T21:29:16.022Z,3.80
2019-03-12T21:31:47.184Z,3.63
2019-03-12T21:34:18.257Z,3.20
2019-03-12T21:36:49.416Z,3.50
2019-03-12T21:39:20.648Z,3.43
2019-03-12T21:41:51.845Z,3.83
2019-03-12T21:44:22.979Z,3.50
2019-03-12T21:46:54.923Z,3.80
2019-03-12T21:49:26.104Z,3.57
2019-03-12T21:51:57.302Z,3.77
2019-03-12T21:54:28.552Z,3.50
2019-03-12T21:56:59.702Z,3.80
2019-03-12T21:59:30.867Z,5.07
2019-03-12T22:02:02.102Z,3.93
2019-03-12T22:04:33.268Z,4.30
2019-03-12T22:07:04.459Z,3.00
2019-03-12T22:09:35.660Z,3.30
2019-03-12T22:12:07.596Z,3.80
2019-03-12T22:14:38.769Z,3.77
2019-03-12T22:17:09.893Z,3.63
2019-03-12T22:19:41.224Z,3.37
2019-03-12T22:22:29.847Z,3.57
2019-03-12T22:25:01.144Z,2.90
2019-03-12T22:27:32.423Z,3.10
2019-03-12T22:30:03.750Z,3.40
2019-03-12T22:32:36.458Z,3.57
2019-03-12T22:35:08.594Z,3.50
2019-03-12T22:37:39.736Z,3.13
2019-03-12T22:40:12.449Z,3.37
2019-03-12T22:42:43.622Z,3.57
2019-03-12T22:45:14.827Z,3.30
2019-03-12T22:47:45.983Z,3.30
2019-03-12T22:50:17.198Z,3.37
2019-03-12T22:52:48.526Z,3.20
2019-03-12T22:55:19.675Z,2.60
2019-03-12T22:57:50.860Z,3.00
2019-03-12T23:00:39.973Z,2.87
2019-03-12T23:03:29.429Z,2.97
2019-03-12T23:06:18.616Z,2.63
2019-03-12T23:09:07.871Z,3.40
2019-03-12T23:11:40.740Z,2.83
2019-03-12T23:14:12.582Z,2.43
2019-03-12T23:16:43.930Z,3.07
2019-03-12T23:19:15.616Z,2.70
2019-03-12T23:21:46.982Z,2.57
2019-03-12T23:24:18.121Z,2.37
2019-03-12T23:26:49.324Z,2.80
2019-03-12T23:29:20.575Z,2.90
2019-03-12T23:31:51.758Z,2.90
2019-03-12T23:34:22.951Z,3.07
2019-03-12T23:36:55.259Z,2.77
2019-03-12T23:39:26.432Z,2.87
2019-03-12T23:41:58.022Z,3.03
2019-03-12T23:44:29.246Z,2.43
2019-03-12T23:47:00.405Z,2.40
2019-03-12T23:49:31.710Z,2.40
2019-03-12T23:52:02.823Z,2.10
2019-03-12T23:54:34.694Z,1.70
2019-03-12T23:57:05.954Z,2.10
2019-03-12T23:59:37.493Z,2.40
